createdAt,value
2022-07-29T00:01:44.684Z,100637.50
2022-07-29T00:04:14.724Z,100636.47
2022-07-29T00:06:44.352Z,100634.52
2022-07-29T00:09:18.265Z,100630.56
2022-07-29T00:11:47.490Z,100628.60
2022-07-29T00:14:17.090Z,100630.38
2022-07-29T00:16:46.605Z,100634.86
2022-07-29T00:19:15.826Z,100630.41
2022-07-29T00:21:45.225Z,100637.77
2022-07-29T00:24:14.634Z,100633.98
2022-07-29T00:26:44.027Z,100636.71
2022-07-29T00:32:02.558Z,100638.02
2022-07-29T00:35:04.281Z,100637.46
2022-07-29T00:37:33.471Z,100636.15
2022-07-29T00:40:02.849Z,100636.67
2022-07-29T00:42:32.037Z,100641.37
2022-07-29T00:45:01.248Z,100640.31
2022-07-29T00:47:30.635Z,100642.24
2022-07-29T00:50:00.151Z,100643.77
2022-07-29T00:52:29.548Z,100643.02
2022-07-29T00:54:59.245Z,100646.02
2022-07-29T00:57:28.552Z,100646.83
2022-07-29T00:59:57.703Z,100648.02
2022-07-29T01:02:27.682Z,100648.45
2022-07-29T01:04:58.124Z,100649.68
2022-07-29T01:07:28.896Z,100645.54
2022-07-29T01:09:59.627Z,100652.00
2022-07-29T01:12:32.492Z,100648.66
2022-07-29T01:15:03.057Z,100647.94
2022-07-29T01:17:37.519Z,100646.73
2022-07-29T01:20:15.237Z,100648.33
2022-07-29T01:23:14.675Z,100647.34
2022-07-29T01:26:22.328Z,100641.39
2022-07-29T01:29:08.175Z,100633.40
2022-07-29T01:31:59.465Z,100640.60
2022-07-29T01:34:37.175Z,100638.61
2022-07-29T01:37:16.157Z,100641.27
2022-07-29T01:39:47.356Z,100646.06
2022-07-29T01:42:21.526Z,100644.09
2022-07-29T01:44:57.309Z,100644.36
2022-07-29T01:47:36.415Z,100641.21
2022-07-29T01:50:11.825Z,100646.05
2022-07-29T01:52:46.631Z,100644.52
2022-07-29T01:55:19.642Z,100645.67
2022-07-29T01:57:51.491Z,100645.92
2022-07-29T02:00:21.864Z,100643.31
2022-07-29T02:02:54.118Z,100640.55
2022-07-29T02:05:25.781Z,100632.67
2022-07-29T02:07:57.140Z,100635.30
2022-07-29T02:10:29.934Z,100640.13
2022-07-29T02:13:00.673Z,100637.30
2022-07-29T02:15:33.504Z,100638.12
2022-07-29T02:18:07.904Z,100642.41
2022-07-29T02:20:37.753Z,100643.94
2022-07-29T02:23:08.331Z,100644.34
2022-07-29T02:25:38.758Z,100644.63
2022-07-29T02:28:10.167Z,100646.49
2022-07-29T02:30:43.333Z,100642.83
2022-07-29T02:33:17.174Z,100644.68
2022-07-29T02:35:48.645Z,100644.69
2022-07-29T02:38:37.738Z,100649.84
2022-07-29T02:41:12.200Z,100648.49
2022-07-29T02:43:42.922Z,100647.56
2022-07-29T02:46:28.979Z,100640.02
2022-07-29T02:49:05.632Z,100640.03
2022-07-29T02:51:50.764Z,100643.58
2022-07-29T02:54:23.823Z,100639.46
2022-07-29T02:56:56.187Z,100641.33
2022-07-29T02:59:29.145Z,100643.92
2022-07-29T03:02:01.019Z,100635.15
2022-07-29T03:04:32.351Z,100635.37
2022-07-29T03:07:02.555Z,100632.84
2022-07-29T03:09:33.111Z,100633.34
2022-07-29T03:12:05.554Z,100632.25
2022-07-29T03:14:35.088Z,100636.04
2022-07-29T03:17:05.524Z,100635.56
2022-07-29T03:19:35.630Z,100634.96
2022-07-29T03:22:05.152Z,100638.38
2022-07-29T03:24:37.326Z,100642.41
2022-07-29T03:27:07.431Z,100642.64
2022-07-29T03:29:36.752Z,100638.63
2022-07-29T03:32:25.349Z,100634.81
2022-07-29T03:35:16.617Z,100643.77
2022-07-29T03:38:04.191Z,100648.07
2022-07-29T03:40:57.465Z,100650.80
2022-07-29T03:43:49.520Z,100645.23
2022-07-29T03:46:37.695Z,100647.80
2022-07-29T03:49:26.147Z,100645.05
2022-07-29T03:52:14.551Z,100642.45
2022-07-29T03:55:01.434Z,100640.63
2022-07-29T03:57:51.647Z,100636.08
2022-07-29T04:00:37.745Z,100637.47
2022-07-29T04:03:23.783Z,100640.05
2022-07-29T04:06:06.571Z,100638.64
2022-07-29T04:08:35.861Z,100637.04
2022-07-29T04:11:06.170Z,100637.60
2022-07-29T04:13:35.420Z,100643.30
2022-07-29T04:16:04.833Z,100646.64
2022-07-29T04:18:34.146Z,100647.20
2022-07-29T04:21:04.784Z,100646.25
2022-07-29T04:23:34.126Z,100638.00
2022-07-29T04:26:03.471Z,100634.63
2022-07-29T04:28:32.720Z,100637.14
2022-07-29T04:31:02.675Z,100641.48
2022-07-29T04:33:32.120Z,100645.88
2022-07-29T04:36:01.285Z,100648.00
2022-07-29T04:38:30.592Z,100647.48
2022-07-29T04:40:59.927Z,100647.76
2022-07-29T04:43:29.648Z,100648.61
2022-07-29T04:46:07.816Z,100652.23
2022-07-29T04:48:37.488Z,100655.15
2022-07-29T04:51:06.773Z,100656.79
2022-07-29T04:53:36.002Z,100666.29
2022-07-29T04:56:06.333Z,100668.33
2022-07-29T04:58:36.753Z,100662.05
2022-07-29T05:01:06.960Z,100659.27
2022-07-29T05:03:36.201Z,100652.91
2022-07-29T05:06:05.514Z,100655.91
2022-07-29T05:08:34.749Z,100660.96
2022-07-29T05:11:12.095Z,100661.61
2022-07-29T05:13:45.285Z,100657.97
2022-07-29T05:16:15.863Z,100661.28
2022-07-29T05:18:45.508Z,100661.19
2022-07-29T05:21:14.808Z,100659.39
2022-07-29T05:23:44.897Z,100660.65
2022-07-29T05:26:14.032Z,100660.05
2022-07-29T05:28:43.347Z,100649.86
2022-07-29T05:31:12.766Z,100650.16
2022-07-29T05:33:42.162Z,100647.98
2022-07-29T05:36:11.370Z,100646.84
2022-07-29T05:38:40.722Z,100651.60
2022-07-29T05:41:09.948Z,100649.52
2022-07-29T05:43:39.177Z,100652.02
2022-07-29T05:46:08.967Z,100656.95
2022-07-29T05:48:40.259Z,100657.17
2022-07-29T05:51:09.609Z,100654.02
2022-07-29T05:53:39.001Z,100649.16
2022-07-29T05:56:09.192Z,100647.38
2022-07-29T05:58:38.548Z,100642.59
2022-07-29T06:01:07.971Z,100643.69
2022-07-29T06:03:39.022Z,100646.29
2022-07-29T06:06:08.656Z,100643.08
2022-07-29T06:08:38.353Z,100641.58
2022-07-29T06:11:09.215Z,100643.52
2022-07-29T06:13:38.726Z,100641.81
2022-07-29T06:16:08.643Z,100642.92
2022-07-29T06:18:38.123Z,100649.61
2022-07-29T06:21:11.202Z,100650.75
2022-07-29T06:23:41.455Z,100647.66
2022-07-29T06:26:10.918Z,100650.75
2022-07-29T06:28:41.075Z,100655.29
2022-07-29T06:31:10.402Z,100654.19
2022-07-29T06:33:39.967Z,100654.48
2022-07-29T06:36:10.664Z,100654.94
2022-07-29T06:38:49.523Z,100656.20
2022-07-29T06:41:20.814Z,100656.89
2022-07-29T06:43:54.609Z,100657.24
2022-07-29T06:46:24.860Z,100656.95
2022-07-29T06:48:56.658Z,100656.98
2022-07-29T06:51:26.265Z,100656.77
2022-07-29T06:53:59.958Z,100657.83
2022-07-29T06:56:39.380Z,100655.73
2022-07-29T06:59:10.792Z,100655.42
2022-07-29T07:01:41.620Z,100657.19
2022-07-29T07:04:12.378Z,100652.85
2022-07-29T07:06:41.981Z,100648.52
2022-07-29T07:09:11.329Z,100646.27
2022-07-29T07:11:41.053Z,100646.15
2022-07-29T07:14:10.471Z,100645.86
2022-07-29T07:16:39.949Z,100642.54
2022-07-29T07:19:09.455Z,100641.72
2022-07-29T07:21:38.755Z,100644.45
2022-07-29T07:24:09.349Z,100642.23
2022-07-29T07:26:40.437Z,100644.42
2022-07-29T07:29:09.782Z,100647.29
2022-07-29T07:31:39.964Z,100649.73
2022-07-29T07:34:09.405Z,100651.05
2022-07-29T07:36:38.890Z,100649.35
2022-07-29T07:39:08.192Z,100646.09
2022-07-29T07:41:37.815Z,100650.75
2022-07-29T07:44:07.723Z,100651.86
2022-07-29T07:46:40.150Z,100652.89
2022-07-29T07:49:11.713Z,100647.41
2022-07-29T07:51:41.175Z,100653.77
2022-07-29T07:54:10.992Z,100649.42
2022-07-29T07:56:41.049Z,100647.49
2022-07-29T07:59:10.312Z,100644.42
2022-07-29T08:01:54.963Z,100645.58
2022-07-29T08:04:28.424Z,100647.60
2022-07-29T08:06:59.277Z,100640.52
2022-07-29T08:09:30.626Z,100645.08
2022-07-29T08:12:03.186Z,100638.46
2022-07-29T08:14:33.342Z,100641.17
2022-07-29T08:17:02.780Z,100635.05
2022-07-29T08:19:32.177Z,100638.84
2022-07-29T08:22:02.952Z,100637.20
2022-07-29T08:24:44.039Z,100637.05
2022-07-29T08:27:40.800Z,100633.63
2022-07-29T08:30:03.389Z,100631.57
2022-07-29T08:32:53.055Z,100633.30
2022-07-29T08:35:24.133Z,100630.02
2022-07-29T08:37:53.947Z,100632.27
2022-07-29T08:40:32.117Z,100636.34
2022-07-29T08:43:07.405Z,100630.42
2022-07-29T08:45:47.352Z,100635.00
2022-07-29T08:48:18.673Z,100633.31
2022-07-29T08:50:49.095Z,100628.67
2022-07-29T08:53:19.833Z,100626.52
2022-07-29T08:55:51.270Z,100625.70
2022-07-29T08:58:23.229Z,100631.27
2022-07-29T09:00:56.182Z,100626.21
2022-07-29T09:03:31.099Z,100627.06
2022-07-29T09:06:00.789Z,100624.15
2022-07-29T09:08:31.982Z,100627.09
2022-07-29T09:11:03.835Z,100624.77
2022-07-29T09:13:34.120Z,100629.42
2022-07-29T09:16:09.109Z,100635.69
2022-07-29T09:18:40.413Z,100628.09
2022-07-29T09:21:34.443Z,100626.56
2022-07-29T09:24:10.467Z,100621.17
2022-07-29T09:26:43.251Z,100621.59
2022-07-29T09:29:14.079Z,100629.79
2022-07-29T09:31:45.584Z,100624.70
2022-07-29T09:34:16.863Z,100621.18
2022-07-29T09:36:47.741Z,100628.54
2022-07-29T09:39:27.661Z,100619.33
2022-07-29T09:41:58.847Z,100614.16
2022-07-29T09:44:41.603Z,100619.62
2022-07-29T09:47:11.329Z,100607.37
2022-07-29T09:49:55.187Z,100608.10
2022-07-29T09:52:24.655Z,100606.45
2022-07-29T09:54:54.771Z,100609.34
2022-07-29T09:57:31.136Z,100607.88
2022-07-29T10:00:02.624Z,100607.09
2022-07-29T10:02:34.310Z,100607.28
2022-07-29T10:05:05.394Z,100607.50
2022-07-29T10:07:50.571Z,100602.95
2022-07-29T10:10:24.728Z,100599.33
2022-07-29T10:13:01.853Z,100591.23
2022-07-29T10:15:38.039Z,100596.49
2022-07-29T10:18:09.430Z,100595.84
2022-07-29T10:20:39.207Z,100591.67
2022-07-29T10:23:10.238Z,100591.09
2022-07-29T10:25:39.529Z,100586.69
2022-07-29T10:28:13.195Z,100587.07
2022-07-29T10:30:46.900Z,100583.31
2022-07-29T10:33:37.644Z,100582.85
2022-07-29T10:36:24.209Z,100585.71
2022-07-29T10:39:03.304Z,100586.30
2022-07-29T10:41:57.886Z,100580.00
2022-07-29T10:44:28.780Z,100568.44
2022-07-29T10:46:59.188Z,100574.98
2022-07-29T10:49:30.955Z,100574.11
2022-07-29T10:52:06.697Z,100573.38
2022-07-29T10:54:46.979Z,100571.45
2022-07-29T10:57:53.751Z,100568.33
2022-07-29T11:00:32.936Z,100573.37
2022-07-29T11:03:04.534Z,100567.08
2022-07-29T11:05:59.738Z,100559.40
2022-07-29T11:08:31.563Z,100562.89
2022-07-29T11:11:37.392Z,100564.81
2022-07-29T11:14:10.464Z,100570.29
2022-07-29T11:17:06.014Z,100562.17
2022-07-29T11:19:37.026Z,100558.43
2022-07-29T11:22:12.117Z,100552.37
2022-07-29T11:24:50.145Z,100548.85
2022-07-29T11:27:22.913Z,100550.33
2022-07-29T11:29:58.680Z,100550.23
2022-07-29T11:32:39.603Z,100539.73
2022-07-29T11:35:19.234Z,100547.80
2022-07-29T11:38:08.884Z,100542.66
2022-07-29T11:40:42.632Z,100545.97
2022-07-29T11:43:32.162Z,100543.63
2022-07-29T11:46:04.898Z,100538.52
2022-07-29T11:48:34.788Z,100537.38
2022-07-29T11:51:12.150Z,100540.08
2022-07-29T11:53:48.293Z,100537.34
2022-07-29T11:56:25.560Z,100534.33
2022-07-29T11:59:05.992Z,100537.21
2022-07-29T12:01:39.486Z,100538.05
2022-07-29T12:04:09.541Z,100536.03
2022-07-29T12:06:41.028Z,100538.05
2022-07-29T12:09:14.664Z,100528.40
2022-07-29T12:11:47.409Z,100530.04
2022-07-29T12:14:31.574Z,100530.17
2022-07-29T12:17:02.077Z,100525.67
2022-07-29T12:19:43.152Z,100526.34
2022-07-29T12:22:14.324Z,100525.48
2022-07-29T12:24:47.194Z,100519.56
2022-07-29T12:27:29.561Z,100515.16
2022-07-29T12:30:03.721Z,100518.07
2022-07-29T12:32:37.906Z,100523.40
2022-07-29T12:35:06.970Z,100515.98
2022-07-29T12:37:41.018Z,100519.82
2022-07-29T12:40:17.376Z,100519.95
2022-07-29T12:43:10.673Z,100516.23
2022-07-29T12:45:40.919Z,100514.30
2022-07-29T12:48:10.866Z,100512.90
2022-07-29T12:50:55.456Z,100512.84
2022-07-29T12:53:25.359Z,100511.27
2022-07-29T12:55:56.707Z,100507.58
2022-07-29T12:58:50.996Z,100504.91
2022-07-29T13:01:21.965Z,100503.69
2022-07-29T13:03:57.583Z,100499.77
2022-07-29T13:06:39.490Z,100496.32
2022-07-29T13:09:14.112Z,100491.80
2022-07-29T13:11:48.405Z,100492.46
2022-07-29T13:14:34.583Z,100501.83
2022-07-29T13:17:09.744Z,100497.90
2022-07-29T13:19:41.728Z,100497.06
2022-07-29T13:22:11.609Z,100496.48
2022-07-29T13:24:56.152Z,100498.77
2022-07-29T13:27:25.143Z,100484.88
2022-07-29T13:29:57.285Z,100477.56
2022-07-29T13:32:28.715Z,100478.73
2022-07-29T13:34:59.397Z,100473.84
2022-07-29T13:37:30.363Z,100475.84
2022-07-29T13:40:01.074Z,100467.98
2022-07-29T13:42:30.548Z,100467.21
2022-07-29T13:44:59.776Z,100468.33
2022-07-29T13:47:32.639Z,100466.30
2022-07-29T13:50:02.633Z,100468.10
2022-07-29T13:52:33.167Z,100466.52
2022-07-29T13:55:03.081Z,100466.19
2022-07-29T13:57:32.718Z,100464.75
2022-07-29T14:00:02.179Z,100465.80
2022-07-29T14:02:31.562Z,100463.61
2022-07-29T14:05:06.194Z,100462.39
2022-07-29T14:07:37.530Z,100461.61
2022-07-29T14:10:08.769Z,100455.09
2022-07-29T14:12:38.198Z,100458.30
2022-07-29T14:15:09.633Z,100451.61
2022-07-29T14:17:38.890Z,100455.89
2022-07-29T14:20:11.544Z,100452.13
2022-07-29T14:22:42.542Z,100450.92
2022-07-29T14:25:14.853Z,100452.93
2022-07-29T14:27:44.922Z,100449.64
2022-07-29T14:30:15.164Z,100445.87
2022-07-29T14:32:44.491Z,100439.23
2022-07-29T14:35:13.750Z,100441.91
2022-07-29T14:37:43.055Z,100440.76
2022-07-29T14:40:13.731Z,100438.70
2022-07-29T14:42:43.070Z,100433.54
2022-07-29T14:45:12.611Z,100431.95
2022-07-29T14:47:42.115Z,100425.90
2022-07-29T14:50:14.591Z,100426.55
2022-07-29T14:52:44.340Z,100420.31
2022-07-29T14:55:16.685Z,100414.59
2022-07-29T14:57:50.686Z,100417.79
2022-07-29T15:00:21.456Z,100418.05
2022-07-29T15:03:01.803Z,100418.59
2022-07-29T15:05:32.723Z,100408.44
2022-07-29T15:08:02.157Z,100409.75
2022-07-29T15:10:31.324Z,100402.02
2022-07-29T15:13:00.683Z,100401.35
2022-07-29T15:15:33.987Z,100398.23
2022-07-29T15:18:30.266Z,100396.35
2022-07-29T15:21:26.131Z,100400.95
2022-07-29T15:24:25.654Z,100390.81
2022-07-29T15:27:22.694Z,100390.81
2022-07-29T15:30:27.891Z,100391.09
2022-07-29T15:33:27.142Z,100389.17
2022-07-29T15:36:50.806Z,100384.88
2022-07-29T15:39:37.065Z,100383.86
2022-07-29T15:42:33.124Z,100386.05
2022-07-29T15:45:32.555Z,100385.41
2022-07-29T15:48:29.172Z,100384.20
2022-07-29T15:51:26.574Z,100382.58
2022-07-29T15:54:20.889Z,100383.17
2022-07-29T15:57:16.166Z,100385.60
2022-07-29T16:00:15.394Z,100386.08
2022-07-29T16:03:07.122Z,100380.59
2022-07-29T16:05:58.977Z,100373.79
2022-07-29T16:09:07.861Z,100374.85
2022-07-29T16:12:01.405Z,100375.42
2022-07-29T16:14:57.894Z,100378.58
2022-07-29T16:17:50.230Z,100376.11
2022-07-29T16:20:39.099Z,100373.97
2022-07-29T16:23:28.380Z,100371.79
2022-07-29T16:26:00.067Z,100372.88
2022-07-29T16:28:31.028Z,100378.62
2022-07-29T16:31:01.901Z,100378.78
2022-07-29T16:33:55.067Z,100380.96
2022-07-29T16:36:22.555Z,100385.35
2022-07-29T16:38:53.237Z,100385.73
2022-07-29T16:41:22.701Z,100381.12
2022-07-29T16:43:53.241Z,100384.92
2022-07-29T16:46:23.335Z,100383.98
2022-07-29T16:48:55.896Z,100385.91
2022-07-29T16:51:27.061Z,100389.29
2022-07-29T16:53:57.412Z,100388.15
2022-07-29T16:56:27.016Z,100391.71
2022-07-29T16:59:00.327Z,100394.35
2022-07-29T17:01:30.024Z,100389.77
2022-07-29T17:04:08.503Z,100390.89
2022-07-29T17:06:40.351Z,100389.08
2022-07-29T17:09:11.552Z,100383.09
2022-07-29T17:11:53.544Z,100386.05
2022-07-29T17:14:26.226Z,100382.86
2022-07-29T17:17:01.337Z,100385.58
2022-07-29T17:19:34.951Z,100379.29
2022-07-29T17:22:18.744Z,100379.31
2022-07-29T17:25:11.962Z,100379.25
2022-07-29T17:28:11.330Z,100383.44
2022-07-29T17:31:00.198Z,100380.56
2022-07-29T17:33:59.632Z,100387.33
2022-07-29T17:36:49.997Z,100389.98
2022-07-29T17:39:46.951Z,100395.14
2022-07-29T17:42:38.061Z,100397.60
2022-07-29T17:45:48.787Z,100398.52
2022-07-29T17:48:35.412Z,100396.15
2022-07-29T17:51:25.739Z,100394.13
2022-07-29T17:54:18.754Z,100391.11
2022-07-29T17:56:49.701Z,100390.71
2022-07-29T17:59:19.332Z,100387.94
2022-07-29T18:01:48.824Z,100388.75
2022-07-29T18:04:20.846Z,100396.06
2022-07-29T18:06:50.072Z,100396.75
2022-07-29T18:09:19.576Z,100397.58
2022-07-29T18:11:49.065Z,100392.58
2022-07-29T18:14:18.452Z,100398.09
2022-07-29T18:16:47.784Z,100398.42
2022-07-29T18:19:17.112Z,100397.64
2022-07-29T18:21:53.986Z,100398.11
2022-07-29T18:24:25.048Z,100396.39
2022-07-29T18:26:54.459Z,100393.95
2022-07-29T18:29:23.859Z,100393.79
2022-07-29T18:31:53.334Z,100395.08
2022-07-29T18:34:22.679Z,100395.48
2022-07-29T18:36:52.012Z,100393.45
2022-07-29T18:39:22.060Z,100393.84
2022-07-29T18:41:53.113Z,100395.32
2022-07-29T18:44:23.002Z,100393.79
2022-07-29T18:46:52.978Z,100393.66
2022-07-29T18:49:22.400Z,100388.52
2022-07-29T18:51:52.595Z,100386.47
2022-07-29T18:54:21.920Z,100382.42
2022-07-29T18:56:51.247Z,100376.48
2022-07-29T18:59:21.208Z,100376.77
2022-07-29T19:01:51.016Z,100383.98
2022-07-29T19:04:20.413Z,100388.84
2022-07-29T19:06:49.712Z,100397.48
2022-07-29T19:09:19.081Z,100406.38
2022-07-29T19:11:53.044Z,100413.09
2022-07-29T19:14:25.410Z,100419.16
2022-07-29T19:16:55.238Z,100416.02
2022-07-29T19:19:25.129Z,100416.75
2022-07-29T19:21:54.721Z,100422.72
2022-07-29T19:24:23.870Z,100415.53
2022-07-29T19:26:53.244Z,100420.08
2022-07-29T19:29:23.387Z,100419.67
2022-07-29T19:31:52.800Z,100423.33
2022-07-29T19:34:22.022Z,100422.48
2022-07-29T19:36:51.406Z,100422.38
2022-07-29T19:39:34.717Z,100420.73
2022-07-29T19:42:05.283Z,100420.76
2022-07-29T19:44:34.572Z,100425.85
2022-07-29T19:47:03.922Z,100427.77
2022-07-29T19:49:36.966Z,100431.27
2022-07-29T19:52:07.694Z,100427.97
2022-07-29T19:54:36.946Z,100426.20
2022-07-29T19:57:06.276Z,100425.13
2022-07-29T19:59:35.935Z,100421.86
2022-07-29T20:02:05.638Z,100421.73
2022-07-29T20:04:35.042Z,100422.65
2022-07-29T20:07:04.449Z,100416.16
2022-07-29T20:09:34.557Z,100417.09
2022-07-29T20:12:06.260Z,100414.52
2022-07-29T20:14:35.599Z,100418.76
2022-07-29T20:17:08.273Z,100411.58
2022-07-29T20:19:37.628Z,100413.30
2022-07-29T20:22:07.344Z,100407.89
2022-07-29T20:24:36.951Z,100408.96
2022-07-29T20:27:06.368Z,100404.18
2022-07-29T20:29:46.903Z,100403.27
2022-07-29T20:32:16.389Z,100403.67
2022-07-29T20:34:45.863Z,100402.25
2022-07-29T20:37:16.464Z,100402.96
2022-07-29T20:39:47.632Z,100398.48
2022-07-29T20:42:17.443Z,100399.61
2022-07-29T20:44:46.849Z,100396.98
2022-07-29T20:47:16.454Z,100397.02
2022-07-29T20:49:45.887Z,100394.95
2022-07-29T20:52:15.397Z,100393.13
2022-07-29T20:54:44.870Z,100393.25
2022-07-29T20:57:14.309Z,100392.19
2022-07-29T20:59:45.880Z,100392.95
2022-07-29T21:02:15.384Z,100395.16
2022-07-29T21:04:45.071Z,100390.61
2022-07-29T21:07:14.482Z,100394.77
2022-07-29T21:09:43.796Z,100401.08
2022-07-29T21:12:14.854Z,100406.01
2022-07-29T21:14:51.456Z,100412.29
2022-07-29T21:17:22.757Z,100408.54
2022-07-29T21:19:53.381Z,100414.88
2022-07-29T21:22:22.806Z,100410.70
2022-07-29T21:25:25.753Z,100407.91
2022-07-29T21:28:44.470Z,100399.39
2022-07-29T21:31:51.700Z,100404.10
2022-07-29T21:34:59.116Z,100402.60
2022-07-29T21:37:28.660Z,100397.01
2022-07-29T21:40:45.276Z,100391.10
2022-07-29T21:43:51.079Z,100389.95
2022-07-29T21:46:21.144Z,100388.38
2022-07-29T21:48:53.900Z,100390.20
2022-07-29T21:51:23.900Z,100389.14
2022-07-29T21:53:53.335Z,100392.95
2022-07-29T21:56:43.298Z,100387.27
2022-07-29T21:59:56.010Z,100389.50
2022-07-29T22:02:54.328Z,100381.33
2022-07-29T22:05:23.818Z,100380.91
2022-07-29T22:07:55.924Z,100382.09
2022-07-29T22:10:28.206Z,100385.26
2022-07-29T22:12:59.116Z,100383.45
2022-07-29T22:15:28.590Z,100385.41
2022-07-29T22:17:58.308Z,100377.49
2022-07-29T22:20:28.202Z,100375.19
2022-07-29T22:22:57.645Z,100374.73
2022-07-29T22:25:26.931Z,100372.61
2022-07-29T22:27:56.123Z,100369.25
2022-07-29T22:30:25.500Z,100373.85
2022-07-29T22:32:54.855Z,100374.55
2022-07-29T22:35:24.211Z,100373.39
2022-07-29T22:37:53.971Z,100372.30
2022-07-29T22:40:23.668Z,100368.46
2022-07-29T22:43:00.068Z,100371.31
2022-07-29T22:45:29.447Z,100372.90
2022-07-29T22:47:59.483Z,100372.05
2022-07-29T22:50:28.818Z,100371.91
2022-07-29T22:52:58.386Z,100368.83
2022-07-29T22:55:28.562Z,100373.54
2022-07-29T22:57:58.577Z,100370.96
2022-07-29T23:00:27.955Z,100372.54
2022-07-29T23:02:57.213Z,100366.75
2022-07-29T23:05:27.761Z,100369.67
2022-07-29T23:07:57.474Z,100369.55
2022-07-29T23:10:26.999Z,100369.28
2022-07-29T23:12:56.257Z,100369.41
2022-07-29T23:15:27.485Z,100368.05
2022-07-29T23:17:57.051Z,100366.75
2022-07-29T23:20:26.707Z,100368.73
2022-07-29T23:22:56.054Z,100372.18
2022-07-29T23:25:25.286Z,100365.80
2022-07-29T23:27:54.816Z,100364.34
2022-07-29T23:30:24.411Z,100359.82
2022-07-29T23:32:54.152Z,100356.41
2022-07-29T23:35:24.603Z,100354.98
2022-07-29T23:37:53.840Z,100350.02
2022-07-29T23:40:23.601Z,100350.80
2022-07-29T23:42:52.965Z,100351.35
2022-07-29T23:45:22.369Z,100355.29
2022-07-29T23:48:11.938Z,100356.34
2022-07-29T23:50:41.960Z,100359.00
2022-07-29T23:53:12.101Z,100348.67
2022-07-29T23:55:42.517Z,100344.06
2022-07-29T23:58:12.342Z,100342.96
